Time;durP1;ratioP1;P1;durP2;ratioP2;P2;SDS_P1;SDS_P2;PMS_P1;PMS_P2;Temp;Humidity;BMP_temperature;BMP_pressure;BME280_temperature;BME280_humidity;BME280_pressure;Samples;Min_cycle;Max_cycle;Signal;HPM_P1;HPM_P2
2022/08/06 11:30:12;;;;;;;3.88;2.20;;;25.80;50.00;;;;;;5156210;27;20386;-82
2022/08/06 11:32:52;;;;;;;4.07;2.05;;;25.30;54.80;;;;;;5107123;28;20040;-82
2022/08/06 11:35:33;;;;;;;5.55;2.00;;;24.90;52.40;;;;;;5106970;27;20035;-83
2022/08/06 11:38:08;;;;;;;3.35;1.95;;;24.40;52.30;;;;;;5082533;28;20099;-83
2022/08/06 11:40:55;;;;;;;2.83;1.65;;;24.00;55.30;;;;;;5115860;27;20048;-82
2022/08/06 11:43:54;;;;;;;2.45;1.77;;;23.50;54.00;;;;;;5109957;28;20035;-83
2022/08/06 11:46:41;;;;;;;1.98;1.75;;;23.20;57.10;;;;;;5068498;28;20067;-82
2022/08/06 11:49:18;;;;;;;2.55;1.70;;;22.90;59.10;;;;;;5086398;27;20037;-83
2022/08/06 11:51:56;;;;;;;2.55;1.75;;;22.70;62.10;;;;;;5088749;28;20036;-83
2022/08/06 11:54:54;;;;;;;3.60;1.73;;;22.60;66.00;;;;;;5099099;28;20031;-82
2022/08/06 11:57:21;;;;;;;3.03;1.50;;;22.40;69.10;;;;;;5074204;28;20051;-82
2022/08/06 12:00:03;;;;;;;2.03;1.63;;;22.30;72.10;;;;;;5079797;28;20127;-82
2022/08/06 12:02:41;;;;;;;2.70;1.58;;;22.30;74.40;;;;;;5080820;28;20126;-82
2022/08/06 12:05:27;;;;;;;3.78;1.40;;;22.30;73.90;;;;;;5089281;28;20052;-83
2022/08/06 12:08:20;;;;;;;3.03;1.90;;;22.40;74.00;;;;;;5082724;28;20104;-83
2022/08/06 12:11:29;;;;;;;2.75;1.80;;;22.50;67.70;;;;;;5146031;27;1337769;-84
2022/08/06 12:13:56;;;;;;;3.58;1.60;;;22.80;72.10;;;;;;5139801;27;20077;-82
2022/08/06 12:16:45;;;;;;;2.25;1.55;;;23.60;75.90;;;;;;5145627;27;20399;-80
2022/08/06 12:19:12;;;;;;;2.00;1.38;;;23.90;66.60;;;;;;5125145;27;20040;-82
2022/08/06 12:21:39;;;;;;;4.20;2.03;;;24.30;63.40;;;;;;5119712;27;20118;-83
2022/08/06 12:24:06;;;;;;;1.85;1.25;;;24.40;62.10;;;;;;5120783;27;20043;-83
2022/08/06 12:26:32;;;;;;;3.00;1.63;;;24.50;58.10;;;;;;5116539;27;20039;-82
2022/08/06 12:29:02;;;;;;;2.45;1.50;;;24.70;59.10;;;;;;5135371;27;20027;-82
2022/08/06 12:31:30;;;;;;;2.60;1.77;;;25.00;56.90;;;;;;5136597;27;20031;-82
2022/08/06 12:33:56;;;;;;;4.00;1.30;;;25.40;55.40;;;;;;5136141;27;20361;-82
2022/08/06 12:36:25;;;;;;;2.38;1.60;;;25.30;53.40;;;;;;5119909;27;20049;-82
2022/08/06 12:38:56;;;;;;;2.95;1.63;;;25.30;53.00;;;;;;5136882;27;20030;-83
2022/08/06 12:41:22;;;;;;;2.80;1.90;;;25.20;49.70;;;;;;5119997;27;20047;-84
2022/08/06 12:43:48;;;;;;;2.88;1.63;;;25.30;51.00;;;;;;5136569;27;20527;-83
2022/08/06 12:46:15;;;;;;;2.92;1.65;;;25.10;49.40;;;;;;5120253;27;20034;-84
2022/08/06 12:48:47;;;;;;;2.15;1.88;;;24.80;49.70;;;;;;5119400;27;20340;-84
2022/08/06 12:51:13;;;;;;;2.58;1.95;;;24.40;49.90;;;;;;5133840;27;20035;-83
2022/08/06 12:53:48;;;;;;;3.08;1.67;;;24.20;49.80;;;;;;5137748;27;20106;-84
2022/08/06 12:56:16;;;;;;;1.63;1.50;;;24.00;50.10;;;;;;5115018;27;20067;-84
2022/08/06 12:58:43;;;;;;;1.70;1.60;;;24.00;50.60;;;;;;5120110;27;20043;-83
2022/08/06 13:01:12;;;;;;;3.38;1.60;;;24.20;50.90;;;;;;5136869;27;20047;-84
2022/08/06 13:03:41;;;;;;;1.70;1.60;;;24.40;51.20;;;;;;5114516;27;20060;-84
2022/08/06 13:06:09;;;;;;;2.10;1.35;;;24.60;51.70;;;;;;5153588;27;20457;-84
2022/08/06 13:08:35;;;;;;;1.73;1.63;;;24.70;51.10;;;;;;5135458;27;20089;-84
2022/08/06 13:11:02;;;;;;;2.25;1.55;;;24.80;50.40;;;;;;5138258;27;20039;-84
2022/08/06 13:13:40;;;;;;;2.15;1.70;;;25.30;49.80;;;;;;5121815;27;20056;-86
2022/08/06 13:16:12;;;;;;;2.45;1.75;;;25.90;49.40;;;;;;5121652;27;20062;-84
2022/08/06 13:18:43;;;;;;;1.98;1.65;;;26.70;50.30;;;;;;5139662;27;20258;-85
2022/08/06 13:21:17;;;;;;;2.58;1.50;;;27.20;49.00;;;;;;5114423;27;20039;-84
2022/08/06 13:23:47;;;;;;;1.55;1.45;;;27.20;45.00;;;;;;5120881;27;20084;-84
2022/08/06 13:26:20;;;;;;;4.30;1.60;;;26.80;45.30;;;;;;5108795;27;20074;-83
2022/08/06 13:29:08;;;;;;;1.40;1.30;;;26.70;44.80;;;;;;5144188;27;20046;-84
2022/08/06 13:31:36;;;;;;;3.08;1.67;;;27.80;47.20;;;;;;5096634;27;20035;-85
2022/08/06 13:34:05;;;;;;;1.92;1.42;;;28.90;46.20;;;;;;5126244;27;20039;-86
2022/08/06 13:36:36;;;;;;;3.80;1.85;;;29.30;43.80;;;;;;5110828;27;20125;-85
2022/08/06 13:39:21;;;;;;;2.75;1.70;;;29.60;42.90;;;;;;5109938;27;20051;-84
2022/08/06 13:41:48;;;;;;;2.65;1.63;;;28.70;41.90;;;;;;5121298;27;20042;-82
2022/08/06 13:44:41;;;;;;;3.97;2.08;;;28.10;43.70;;;;;;5107137;27;20031;-83
2022/08/06 13:47:08;;;;;;;3.40;2.00;;;27.40;43.90;;;;;;5126765;27;20132;-84
2022/08/06 13:49:34;;;;;;;2.17;1.75;;;26.70;45.90;;;;;;5105589;27;20050;-84
2022/08/06 13:52:02;;;;;;;2.25;1.77;;;26.40;46.00;;;;;;5120764;27;20053;-84
2022/08/06 13:54:28;;;;;;;3.63;1.95;;;26.00;46.40;;;;;;5104687;27;20039;-84
2022/08/06 13:56:55;;;;;;;3.95;1.73;;;25.60;46.80;;;;;;5096847;27;20126;-83
2022/08/06 13:59:23;;;;;;;3.42;1.90;;;25.30;47.40;;;;;;5124017;27;20042;-83
2022/08/06 14:01:49;;;;;;;4.50;1.83;;;25.00;48.00;;;;;;5108901;27;20091;-83
2022/08/06 14:04:19;;;;;;;2.20;2.00;;;24.70;48.00;;;;;;5123152;27;20043;-82
2022/08/06 14:06:46;;;;;;;2.42;1.60;;;24.60;48.40;;;;;;5121501;27;20026;-84
2022/08/06 14:09:13;;;;;;;1.98;1.75;;;24.40;48.60;;;;;;5121725;27;20061;-83
2022/08/06 14:11:39;;;;;;;2.53;1.70;;;24.30;49.20;;;;;;5122337;27;20528;-84
2022/08/06 14:14:08;;;;;;;2.05;1.95;;;24.20;49.10;;;;;;5099935;27;20031;-83
2022/08/06 14:16:34;;;;;;;2.20;2.00;;;24.10;49.10;;;;;;5106621;27;20031;-83
2022/08/06 14:19:00;;;;;;;2.03;1.77;;;24.10;49.50;;;;;;5108056;27;20046;-84
2022/08/06 14:21:26;;;;;;;3.42;1.88;;;24.10;49.70;;;;;;5125082;27;20040;-83
2022/08/06 14:23:52;;;;;;;2.97;2.17;;;24.70;49.60;;;;;;5109639;27;20115;-84
2022/08/06 14:26:18;;;;;;;3.50;2.03;;;25.70;49.20;;;;;;5107600;27;20039;-83
2022/08/06 14:28:43;;;;;;;2.85;1.90;;;26.90;47.70;;;;;;5124876;27;20450;-84
2022/08/06 14:31:10;;;;;;;3.45;2.00;;;27.80;46.10;;;;;;5124141;27;20031;-84
2022/08/06 14:33:36;;;;;;;2.97;1.98;;;28.30;44.00;;;;;;5104816;27;20047;-84
2022/08/06 14:36:03;;;;;;;2.25;1.88;;;29.00;42.80;;;;;;5098387;28;20035;-84
2022/08/06 14:38:29;;;;;;;2.08;1.80;;;29.40;42.50;;;;;;5104134;27;20063;-84
2022/08/06 14:46:28;;;;;;;2.10;1.90;;;30.90;42.30;;;;;;5149311;27;20058;-82
2022/08/06 14:48:54;;;;;;;3.20;2.22;;;30.30;40.10;;;;;;5133207;27;20051;-79
2022/08/06 14:51:20;;;;;;;2.95;1.60;;;30.00;39.90;;;;;;5136443;27;20489;-85
2022/08/06 14:53:46;;;;;;;2.45;1.63;;;30.30;40.10;;;;;;5118223;27;20039;-84
2022/08/06 14:56:11;;;;;;;2.80;1.83;;;30.40;39.50;;;;;;5114887;27;20035;-84
2022/08/06 14:58:37;;;;;;;2.72;1.77;;;29.70;39.60;;;;;;5119955;27;20067;-84
2022/08/06 15:01:03;;;;;;;1.80;1.70;;;29.20;39.80;;;;;;5118805;27;20410;-84
2022/08/06 15:03:29;;;;;;;2.45;1.98;;;28.90;40.40;;;;;;5116096;27;20035;-83
2022/08/06 15:05:55;;;;;;;2.78;2.08;;;28.20;41.20;;;;;;5117585;27;20034;-84
2022/08/06 15:08:21;;;;;;;2.63;2.40;;;27.50;41.70;;;;;;5096850;28;20118;-84
2022/08/06 15:10:47;;;;;;;3.03;2.35;;;26.80;43.00;;;;;;5097354;28;20043;-85
2022/08/06 15:13:13;;;;;;;2.50;2.20;;;26.20;43.60;;;;;;5101032;27;20035;-84
2022/08/06 15:15:39;;;;;;;3.08;2.55;;;25.60;44.00;;;;;;5118946;27;20039;-84
2022/08/06 15:18:05;;;;;;;2.53;2.33;;;25.20;45.10;;;;;;5101949;27;20035;-83
2022/08/06 15:20:32;;;;;;;2.70;2.50;;;24.90;46.20;;;;;;5096500;27;20044;-84
2022/08/06 15:22:57;;;;;;;3.10;2.25;;;24.60;46.80;;;;;;5119911;27;20054;-84
2022/08/06 15:25:23;;;;;;;3.42;2.40;;;24.30;47.50;;;;;;5092051;28;20442;-84
2022/08/06 15:27:49;;;;;;;3.22;2.40;;;24.00;48.00;;;;;;5100380;27;20119;-84
2022/08/06 15:30:15;;;;;;;2.70;2.50;;;23.80;48.70;;;;;;5119534;27;20420;-84
2022/08/06 15:32:41;;;;;;;2.90;2.30;;;23.70;48.50;;;;;;5117525;27;20043;-84
2022/08/06 15:35:07;;;;;;;4.15;2.67;;;23.60;49.30;;;;;;5119029;27;20056;-83
2022/08/06 15:37:36;;;;;;;3.63;2.15;;;23.50;51.10;;;;;;5118168;27;20039;-84
2022/08/06 15:40:03;;;;;;;3.45;2.58;;;23.50;51.50;;;;;;5103107;27;20046;-84
2022/08/06 15:42:28;;;;;;;2.50;2.30;;;24.00;50.60;;;;;;5116472;27;20130;-82
2022/08/06 15:44:54;;;;;;;3.65;2.13;;;24.20;50.30;;;;;;5097571;27;20504;-83
2022/08/06 15:47:21;;;;;;;2.55;2.20;;;24.90;50.40;;;;;;5100438;28;20047;-83
2022/08/06 15:49:47;;;;;;;7.57;2.15;;;26.10;47.60;;;;;;5137335;27;20031;-84
2022/08/06 15:52:12;;;;;;;2.33;2.20;;;26.10;46.50;;;;;;5098150;27;20042;-84
2022/08/06 15:54:38;;;;;;;3.72;2.15;;;25.90;46.20;;;;;;5101544;27;20035;-84
2022/08/06 15:57:04;;;;;;;2.60;2.35;;;25.50;46.80;;;;;;5102901;27;20031;-83
2022/08/06 15:59:30;;;;;;;3.22;2.10;;;25.00;46.90;;;;;;5100401;28;20035;-84
2022/08/06 16:01:55;;;;;;;3.85;2.20;;;24.60;47.50;;;;;;5103504;27;20035;-83
2022/08/06 16:04:21;;;;;;;3.75;2.05;;;24.90;48.80;;;;;;5118816;28;20081;-83
2022/08/06 16:06:47;;;;;;;2.28;2.08;;;26.00;47.90;;;;;;5101770;28;20122;-84
2022/08/06 16:09:13;;;;;;;4.07;2.50;;;26.70;46.50;;;;;;5118038;28;20027;-83
2022/08/06 16:11:39;;;;;;;3.50;2.13;;;26.40;45.80;;;;;;5103069;28;20031;-84
2022/08/06 16:14:05;;;;;;;2.70;2.50;;;26.30;45.50;;;;;;5117663;28;20050;-83
2022/08/06 16:16:31;;;;;;;2.20;2.10;;;25.90;45.40;;;;;;5119574;28;20039;-83
2022/08/06 16:18:57;;;;;;;3.50;2.10;;;25.30;46.20;;;;;;5113445;27;20085;-83
2022/08/06 16:21:23;;;;;;;3.35;2.33;;;24.70;46.80;;;;;;5119350;28;20130;-83
2022/08/06 16:23:50;;;;;;;3.22;1.90;;;24.20;47.50;;;;;;5117251;28;20088;-83
2022/08/06 16:26:19;;;;;;;2.60;2.28;;;24.30;47.70;;;;;;5099818;28;20397;-83
2022/08/06 16:28:46;;;;;;;2.78;2.15;;;25.40;47.20;;;;;;5097901;28;20490;-83
2022/08/06 16:31:12;;;;;;;2.00;1.80;;;26.60;46.40;;;;;;5101064;28;20049;-84
2022/08/06 16:33:37;;;;;;;2.10;1.90;;;27.60;45.40;;;;;;5109071;28;20023;-83
2022/08/06 16:36:04;;;;;;;2.47;2.25;;;28.50;43.90;;;;;;5117391;28;20087;-83
2022/08/06 16:38:30;;;;;;;2.45;2.08;;;28.90;42.30;;;;;;5100572;28;20035;-83
2022/08/06 16:40:55;;;;;;;2.13;1.77;;;28.30;42.50;;;;;;5105525;28;20050;-83
2022/08/06 16:43:21;;;;;;;1.80;1.70;;;28.20;42.60;;;;;;5119631;28;20050;-83
2022/08/06 16:45:47;;;;;;;2.42;1.80;;;28.10;42.00;;;;;;5122009;28;20035;-83
2022/08/06 16:48:12;;;;;;;4.20;1.90;;;27.50;41.30;;;;;;5121744;28;20039;-83
2022/08/06 16:50:38;;;;;;;1.90;1.67;;;26.50;42.60;;;;;;5122717;28;20114;-83
2022/08/06 16:53:05;;;;;;;2.65;2.30;;;25.60;42.90;;;;;;5104188;28;20085;-84
2022/08/06 16:55:32;;;;;;;2.60;2.00;;;25.70;43.40;;;;;;5105602;27;20047;-84
2022/08/06 16:57:59;;;;;;;2.55;2.25;;;25.60;44.10;;;;;;5127067;27;20397;-82
2022/08/06 17:00:25;;;;;;;2.30;2.08;;;25.10;44.80;;;;;;5128209;27;20043;-84
2022/08/06 17:02:50;;;;;;;2.55;2.35;;;25.10;45.80;;;;;;5123492;27;20058;-83
2022/08/06 17:05:19;;;;;;;4.13;2.50;;;25.80;45.80;;;;;;5127811;27;20039;-85
2022/08/06 17:07:49;;;;;;;2.90;2.60;;;26.50;45.40;;;;;;5117798;27;20039;-84
2022/08/06 17:10:17;;;;;;;3.58;3.05;;;26.90;44.70;;;;;;5105649;27;20039;-83
2022/08/06 17:12:45;;;;;;;4.35;2.70;;;26.60;44.40;;;;;;5108596;27;20050;-84
2022/08/06 17:15:11;;;;;;;2.85;2.58;;;26.50;44.50;;;;;;5112345;27;20035;-83
2022/08/06 17:17:45;;;;;;;3.30;2.72;;;26.70;44.60;;;;;;5111928;27;20032;-83
2022/08/06 17:20:12;;;;;;;2.97;2.67;;;26.50;44.50;;;;;;5130302;27;20035;-83
2022/08/06 17:22:38;;;;;;;3.35;3.05;;;26.20;44.90;;;;;;5114778;27;20035;-84
2022/08/06 17:25:06;;;;;;;4.45;3.38;;;25.60;45.90;;;;;;5128613;27;20043;-84
2022/08/06 17:27:35;;;;;;;3.47;3.03;;;25.00;46.90;;;;;;5128514;27;20036;-85
2022/08/06 17:30:01;;;;;;;3.80;2.88;;;24.30;48.10;;;;;;5126446;27;20042;-83
2022/08/06 17:32:26;;;;;;;5.22;3.28;;;24.00;48.80;;;;;;5121660;28;20032;-83
2022/08/06 17:34:52;;;;;;;4.07;2.90;;;23.60;49.60;;;;;;5116909;27;20254;-84
2022/08/06 17:37:18;;;;;;;3.95;3.13;;;23.30;50.20;;;;;;5106911;27;20072;-83
2022/08/06 17:39:43;;;;;;;3.40;3.10;;;22.90;51.00;;;;;;5122553;27;20027;-83
2022/08/06 17:42:09;;;;;;;3.30;3.00;;;22.60;52.00;;;;;;5104099;27;20496;-84
2022/08/06 17:44:35;;;;;;;4.45;2.67;;;22.40;53.10;;;;;;5124714;27;20035;-83
2022/08/06 17:47:01;;;;;;;3.03;2.83;;;22.10;53.70;;;;;;5129863;27;20039;-83
2022/08/06 17:49:26;;;;;;;4.35;3.17;;;21.90;54.10;;;;;;5143405;27;20048;-83
2022/08/06 17:51:52;;;;;;;3.88;3.03;;;21.70;55.00;;;;;;5126147;27;20045;-83
2022/08/06 17:54:18;;;;;;;3.47;3.17;;;21.50;56.10;;;;;;5132272;27;20070;-83
2022/08/06 17:56:44;;;;;;;3.60;3.30;;;21.40;57.10;;;;;;5107913;27;20035;-83
2022/08/06 17:59:11;;;;;;;4.47;2.50;;;21.10;59.20;;;;;;5131374;27;20038;-83
2022/08/06 18:01:37;;;;;;;3.25;2.67;;;20.90;61.40;;;;;;5110121;27;20137;-83
2022/08/06 18:04:06;;;;;;;2.80;2.60;;;20.80;63.10;;;;;;5111385;27;20405;-83
2022/08/06 18:06:34;;;;;;;4.00;2.65;;;20.60;66.80;;;;;;5120586;27;20064;-83
2022/08/06 18:09:01;;;;;;;3.33;3.00;;;20.50;70.20;;;;;;5104566;27;20036;-83
2022/08/06 18:11:27;;;;;;;4.22;3.10;;;20.30;72.90;;;;;;5128600;27;20072;-82
2022/08/06 18:13:53;;;;;;;8.10;7.50;;;20.20;77.70;;;;;;5120930;27;20104;-82
2022/08/06 18:16:19;;;;;;;12.48;11.38;;;20.10;77.70;;;;;;5122606;27;20039;-82
2022/08/06 18:18:46;;;;;;;6.95;6.35;;;19.90;81.90;;;;;;5139691;27;20023;-83
2022/08/06 18:21:18;;;;;;;6.18;5.68;;;19.80;83.30;;;;;;5122783;27;20056;-83
2022/08/06 18:23:45;;;;;;;7.97;6.40;;;19.70;89.60;;;;;;5137395;27;20019;-85
2022/08/06 18:26:11;;;;;;;12.13;10.43;;;19.60;88.30;;;;;;5139003;27;20024;-83
2022/08/06 18:28:37;;;;;;;6.72;6.22;;;19.50;90.80;;;;;;5137167;27;20039;-84
2022/08/06 18:31:07;;;;;;;5.15;4.65;;;19.40;90.00;;;;;;5109842;27;20031;-84
2022/08/06 18:33:34;;;;;;;5.35;4.22;;;19.20;90.40;;;;;;5106392;27;20083;-84
2022/08/06 18:36:00;;;;;;;5.22;3.17;;;19.20;91.00;;;;;;5105097;27;20035;-83
2022/08/06 18:38:27;;;;;;;5.25;3.83;;;19.00;91.80;;;;;;5105445;27;20391;-83
2022/08/06 18:40:53;;;;;;;4.07;3.67;;;18.90;92.70;;;;;;5101740;27;20035;-82
2022/08/06 18:43:19;;;;;;;4.40;4.00;;;18.80;94.50;;;;;;5120366;27;20068;-83
2022/08/06 18:45:44;;;;;;;4.40;4.00;;;18.70;95.50;;;;;;5122013;27;20035;-83
2022/08/06 18:48:10;;;;;;;4.05;3.65;;;18.60;96.50;;;;;;5103011;27;20051;-82
2022/08/06 18:50:36;;;;;;;5.82;4.00;;;18.50;96.90;;;;;;5104043;27;20489;-82
2022/08/06 18:53:02;;;;;;;4.60;3.63;;;18.40;97.30;;;;;;5120265;27;20068;-83
2022/08/06 18:55:29;;;;;;;4.82;3.70;;;18.30;98.00;;;;;;5102212;27;20489;-83
2022/08/06 18:57:55;;;;;;;4.70;4.15;;;18.20;99.00;;;;;;5104152;27;20031;-85
2022/08/06 19:00:23;;;;;;;5.07;3.67;;;18.10;99.40;;;;;;5104947;27;20137;-84
2022/08/06 19:02:49;;;;;;;6.45;3.78;;;18.00;99.20;;;;;;5124567;27;20035;-85
2022/08/06 19:05:16;;;;;;;4.55;3.85;;;17.90;99.60;;;;;;5127304;27;20026;-84
2022/08/06 19:07:44;;;;;;;5.15;4.30;;;17.80;99.90;;;;;;5094558;27;20165;-84
2022/08/06 19:10:09;;;;;;;4.00;3.60;;;17.70;99.90;;;;;;5148255;27;20045;-83
2022/08/06 19:12:37;;;;;;;4.78;4.05;;;17.60;99.90;;;;;;5129073;27;20039;-83
2022/08/06 19:15:03;;;;;;;3.75;3.35;;;17.50;99.90;;;;;;5129817;27;20035;-83
2022/08/06 19:17:29;;;;;;;4.07;3.60;;;17.40;99.90;;;;;;5109324;27;20114;-83
2022/08/06 19:19:55;;;;;;;4.43;4.03;;;17.30;99.90;;;;;;5119031;27;20042;-83
2022/08/06 19:22:23;;;;;;;4.80;4.40;;;17.20;99.90;;;;;;5108451;28;20054;-83
2022/08/06 19:24:49;;;;;;;4.72;4.13;;;17.00;99.90;;;;;;5126280;27;20050;-83
2022/08/06 19:27:16;;;;;;;4.13;3.72;;;17.00;99.90;;;;;;5110612;27;20409;-83
2022/08/06 19:29:41;;;;;;;3.47;3.17;;;16.90;99.90;;;;;;5147143;27;20500;-83
2022/08/06 19:32:08;;;;;;;3.45;3.13;;;16.80;99.90;;;;;;5128451;27;20106;-83
2022/08/06 19:34:34;;;;;;;5.18;3.30;;;16.60;99.90;;;;;;5107597;28;20087;-83
2022/08/06 19:36:59;;;;;;;3.63;3.30;;;16.50;99.90;;;;;;5108791;28;20035;-82
2022/08/06 19:39:25;;;;;;;4.93;3.30;;;16.50;99.90;;;;;;5125976;27;20042;-83
2022/08/06 19:41:52;;;;;;;5.90;3.80;;;16.40;99.90;;;;;;5097084;27;20047;-83
2022/08/06 19:44:19;;;;;;;5.38;3.95;;;16.30;99.90;;;;;;5109265;27;20049;-82
2022/08/06 19:46:45;;;;;;;4.95;3.75;;;16.20;99.90;;;;;;5106794;28;20047;-83
2022/08/06 19:49:11;;;;;;;5.68;3.50;;;16.10;99.90;;;;;;5108486;27;20051;-83
2022/08/06 19:51:37;;;;;;;5.85;4.03;;;16.10;99.90;;;;;;5127090;27;20043;-83
2022/08/06 19:54:04;;;;;;;5.32;3.95;;;16.00;99.90;;;;;;5144377;27;20031;-83
2022/08/06 19:56:31;;;;;;;6.97;4.15;;;15.90;99.90;;;;;;5110138;27;20499;-83
2022/08/06 19:58:58;;;;;;;4.68;3.90;;;15.90;99.90;;;;;;5120161;28;20024;-83
2022/08/06 20:01:25;;;;;;;4.15;3.80;;;15.80;99.90;;;;;;5123742;28;20063;-83
2022/08/06 20:03:50;;;;;;;5.45;3.97;;;15.70;99.90;;;;;;5104378;27;20390;-80
2022/08/06 20:06:16;;;;;;;4.78;3.92;;;15.60;99.90;;;;;;5114215;28;20044;-82
2022/08/06 20:08:42;;;;;;;5.13;4.07;;;15.50;99.90;;;;;;5100554;28;20485;-83
2022/08/06 20:11:10;;;;;;;6.15;4.40;;;15.40;99.90;;;;;;5122120;28;20035;-83
2022/08/06 20:13:36;;;;;;;5.68;5.07;;;15.40;99.90;;;;;;5121701;28;20027;-83
2022/08/06 20:16:03;;;;;;;5.82;4.75;;;15.30;99.90;;;;;;5120669;28;20085;-83
2022/08/06 20:18:29;;;;;;;7.28;4.95;;;15.30;99.90;;;;;;5121159;28;20036;-82
2022/08/06 20:20:56;;;;;;;6.32;5.60;;;15.30;99.90;;;;;;5105033;28;20046;-82
2022/08/06 20:23:22;;;;;;;6.60;5.28;;;15.20;99.90;;;;;;5109728;28;20053;-83
2022/08/06 20:25:53;;;;;;;5.22;4.72;;;15.20;99.90;;;;;;5097456;28;20047;-83
2022/08/06 20:28:24;;;;;;;7.72;5.75;;;15.20;99.90;;;;;;5128860;28;20047;-83
2022/08/06 20:30:50;;;;;;;4.80;4.40;;;15.10;99.90;;;;;;5127486;28;20123;-82
2022/08/06 20:33:19;;;;;;;5.20;4.40;;;15.10;99.90;;;;;;5133359;27;20069;-83
2022/08/06 20:35:45;;;;;;;4.60;4.18;;;15.00;99.90;;;;;;5116419;27;20366;-82
2022/08/06 20:38:12;;;;;;;5.18;4.15;;;14.90;99.90;;;;;;5132471;27;20053;-82
2022/08/06 20:40:38;;;;;;;5.90;4.13;;;14.90;99.90;;;;;;5124974;27;20039;-82
2022/08/06 20:43:06;;;;;;;4.78;3.80;;;14.80;99.90;;;;;;5103284;27;20039;-82
2022/08/06 20:45:32;;;;;;;8.25;3.83;;;14.80;99.90;;;;;;5111705;27;20039;-83
2022/08/06 20:47:58;;;;;;;4.95;3.97;;;14.70;99.90;;;;;;5109826;27;20055;-84
2022/08/06 20:50:24;;;;;;;7.47;4.65;;;14.70;99.90;;;;;;5112003;27;20126;-82
2022/08/06 20:52:50;;;;;;;5.55;4.18;;;14.60;99.90;;;;;;5106605;27;20526;-83
2022/08/06 20:55:17;;;;;;;4.68;4.20;;;14.60;99.90;;;;;;5111571;27;20034;-83
2022/08/06 20:57:43;;;;;;;4.28;3.88;;;14.50;99.90;;;;;;5112103;27;20454;-83
2022/08/06 21:00:13;;;;;;;5.68;3.83;;;14.50;99.90;;;;;;5123298;27;20074;-82
2022/08/06 21:02:39;;;;;;;5.75;5.00;;;14.50;99.90;;;;;;5111786;27;20042;-82
2022/08/06 21:05:09;;;;;;;5.90;5.22;;;14.50;99.90;;;;;;5129161;27;20039;-82
2022/08/06 21:07:41;;;;;;;5.05;4.65;;;14.40;99.90;;;;;;5124958;27;20035;-82
2022/08/06 21:10:08;;;;;;;5.72;5.22;;;14.40;99.90;;;;;;5127454;27;20046;-82
2022/08/06 21:12:35;;;;;;;8.23;5.65;;;14.40;99.90;;;;;;5129560;27;20069;-82
2022/08/06 21:15:02;;;;;;;6.03;4.97;;;14.30;99.90;;;;;;5112835;27;20031;-82
2022/08/06 21:17:28;;;;;;;5.75;5.13;;;14.30;99.90;;;;;;5112985;27;20042;-81
2022/08/06 21:22:27;;;;;;;6.28;5.57;;;14.20;99.90;;;;;;5090295;28;20255;-31
2022/08/06 21:24:53;;;;;;;6.07;5.25;;;14.10;99.90;;;;;;5072480;28;20376;-32
2022/08/06 21:27:19;;;;;;;7.22;5.10;;;14.10;99.90;;;;;;5089737;28;20127;-32
2022/08/06 21:29:44;;;;;;;8.18;5.35;;;14.00;99.90;;;;;;5060684;28;20478;-33
2022/08/06 21:32:10;;;;;;;6.03;5.38;;;14.00;99.90;;;;;;5062131;28;20035;-32
2022/08/06 21:34:36;;;;;;;5.18;4.68;;;14.00;99.90;;;;;;5070041;28;20247;-31
2022/08/06 21:37:03;;;;;;;7.15;5.80;;;13.90;99.90;;;;;;5063200;28;20075;-32
2022/08/06 21:39:30;;;;;;;7.68;6.88;;;13.90;99.90;;;;;;5057977;28;20039;-32
2022/08/06 21:41:56;;;;;;;9.60;6.78;;;13.80;99.90;;;;;;5065799;28;20110;-32
2022/08/06 21:44:22;;;;;;;8.27;7.47;;;13.80;99.90;;;;;;5054840;28;20045;-31
2022/08/06 21:46:48;;;;;;;8.02;7.22;;;13.80;99.90;;;;;;5064353;28;20043;-31
2022/08/06 21:49:13;;;;;;;7.95;6.78;;;13.70;99.90;;;;;;5056583;28;20036;-32
2022/08/06 21:51:39;;;;;;;8.05;7.18;;;13.60;99.90;;;;;;5063087;28;20043;-31
2022/08/06 21:54:06;;;;;;;9.48;7.10;;;13.60;99.90;;;;;;5063074;28;20038;-31
2022/08/06 21:56:32;;;;;;;7.43;6.13;;;13.60;99.90;;;;;;5064649;28;20070;-31
2022/08/06 21:58:59;;;;;;;6.35;5.75;;;13.50;99.90;;;;;;5068105;28;20032;-31
2022/08/06 22:01:25;;;;;;;6.85;5.75;;;13.50;99.90;;;;;;5055706;28;20457;-32
2022/08/06 22:03:53;;;;;;;6.30;5.07;;;13.40;99.90;;;;;;5078516;28;20035;-31
2022/08/06 22:06:19;;;;;;;6.82;5.15;;;13.40;99.90;;;;;;5062964;28;20080;-32
2022/08/06 22:08:48;;;;;;;8.30;5.13;;;13.30;99.90;;;;;;5058725;28;20031;-31
2022/08/06 22:11:14;;;;;;;6.47;5.20;;;13.30;99.90;;;;;;5056982;28;20093;-31
2022/08/06 22:13:40;;;;;;;6.82;6.00;;;13.30;99.90;;;;;;5058884;28;20052;-32
2022/08/06 22:16:06;;;;;;;7.97;6.32;;;13.20;99.90;;;;;;5061923;28;20060;-32
2022/08/06 22:18:32;;;;;;;7.40;6.03;;;13.20;99.90;;;;;;5055724;28;20475;-31
2022/08/06 22:20:58;;;;;;;9.02;6.20;;;13.10;99.90;;;;;;5061995;28;20409;-31
2022/08/06 22:23:24;;;;;;;8.15;6.22;;;13.10;99.90;;;;;;5054300;28;20036;-32
2022/08/06 22:25:50;;;;;;;6.72;6.03;;;13.00;99.90;;;;;;5056891;28;20040;-31
2022/08/06 22:28:16;;;;;;;8.60;7.50;;;13.00;99.90;;;;;;5061442;28;20040;-32
2022/08/06 22:30:43;;;;;;;8.52;7.60;;;12.90;99.90;;;;;;5058855;28;20489;-32
2022/08/06 22:33:16;;;;;;;9.30;7.00;;;12.90;99.90;;;;;;5053033;28;20043;-34
2022/08/06 22:35:43;;;;;;;8.77;6.97;;;12.80;99.90;;;;;;5053382;28;20052;-32
2022/08/06 22:38:09;;;;;;;11.07;7.18;;;12.80;99.90;;;;;;5053576;28;20029;-34
2022/08/06 22:40:45;;;;;;;10.20;7.10;;;12.70;99.90;;;;;;5053285;28;20500;-32
2022/08/06 22:43:12;;;;;;;10.13;7.10;;;12.70;99.90;;;;;;5052838;28;20040;-33
2022/08/06 22:45:41;;;;;;;7.03;6.32;;;12.70;99.90;;;;;;5053363;28;20109;-34
2022/08/06 22:48:07;;;;;;;6.95;6.25;;;12.70;99.90;;;;;;5054276;28;20044;-31
2022/08/06 22:50:33;;;;;;;8.40;6.47;;;12.70;99.90;;;;;;5054324;28;20369;-32
2022/08/06 22:53:00;;;;;;;7.82;6.97;;;12.60;99.90;;;;;;5054702;28;20036;-31
2022/08/06 22:55:27;;;;;;;7.15;6.28;;;12.60;99.90;;;;;;5036438;28;20036;-32
2022/08/06 22:57:53;;;;;;;7.15;6.43;;;12.50;99.90;;;;;;5054270;28;20028;-33
2022/08/06 23:00:20;;;;;;;7.53;5.97;;;12.50;99.90;;;;;;5054412;28;20044;-33
2022/08/06 23:02:46;;;;;;;7.38;6.68;;;12.40;99.90;;;;;;5064057;28;20055;-30
2022/08/06 23:05:12;;;;;;;6.97;6.00;;;12.40;99.90;;;;;;5052804;28;20098;-32
2022/08/06 23:07:38;;;;;;;7.70;5.85;;;12.40;99.90;;;;;;5054247;28;20040;-32
2022/08/06 23:10:05;;;;;;;9.23;6.00;;;12.40;99.90;;;;;;5051668;28;20072;-33
2022/08/06 23:12:32;;;;;;;5.82;5.10;;;12.30;99.90;;;;;;5054126;28;20037;-31
2022/08/06 23:14:58;;;;;;;7.10;5.03;;;12.30;99.90;;;;;;5035960;28;20521;-32
2022/08/06 23:17:24;;;;;;;6.43;5.43;;;12.30;99.90;;;;;;5054042;28;20043;-32
2022/08/06 23:19:50;;;;;;;8.48;5.82;;;12.20;99.90;;;;;;5053989;28;20410;-31
2022/08/06 23:22:16;;;;;;;7.47;6.03;;;12.20;99.90;;;;;;5053966;28;20599;-31
2022/08/06 23:24:42;;;;;;;6.57;5.63;;;12.20;99.90;;;;;;5039882;28;20101;-32
2022/08/06 23:27:08;;;;;;;8.00;5.25;;;12.10;99.90;;;;;;5054507;28;20029;-32
2022/08/06 23:29:39;;;;;;;7.63;5.15;;;12.10;99.90;;;;;;5062058;28;20539;-31
2022/08/06 23:32:06;;;;;;;6.43;5.60;;;12.10;99.90;;;;;;5053764;28;20119;-32
2022/08/06 23:34:33;;;;;;;7.97;5.88;;;12.00;99.90;;;;;;5056646;28;20051;-33
2022/08/06 23:36:59;;;;;;;7.35;6.38;;;12.00;99.90;;;;;;5053997;28;20032;-32
2022/08/06 23:39:26;;;;;;;7.50;5.43;;;12.00;99.90;;;;;;5053674;28;20043;-32
2022/08/06 23:41:52;;;;;;;6.63;5.30;;;12.00;99.90;;;;;;5053528;28;20501;-32
2022/08/06 23:44:18;;;;;;;6.05;5.45;;;11.90;99.90;;;;;;5053374;28;20094;-33
2022/08/06 23:46:44;;;;;;;7.10;5.97;;;11.90;99.90;;;;;;5057689;28;20045;-31
2022/08/06 23:49:10;;;;;;;5.85;5.20;;;11.90;99.90;;;;;;5053356;28;20033;-34
2022/08/06 23:51:36;;;;;;;7.53;5.32;;;11.90;99.90;;;;;;5056875;28;20032;-31
2022/08/06 23:54:02;;;;;;;7.43;6.00;;;11.80;99.90;;;;;;5050912;28;20379;-34
2022/08/06 23:56:28;;;;;;;8.57;5.43;;;11.80;99.90;;;;;;5053592;28;20042;-32
2022/08/06 23:58:54;;;;;;;7.70;5.05;;;11.80;99.90;;;;;;5053222;28;20485;-32
